LKCV

Čáslav Air Base Airport

Čáslav, Czech Republic
TAF LKCV 181700Z 1818/1918 12006KT 9999 SCT020 TEMPO 1818/1904 7000 BKN020 PROB30 1818/1822 4000 BR OVC012 BECMG 1822/1824 14012KT
Issued Valid From Valid To
Dec-18 @ 17:00 UTC
(6 hours ago)
Dec-18 @ 18:00 UTC
(5 hours ago)
Dec-19 @ 18:00 UTC
(in 19 hours)
Expired Click to View Dec-18 @ 18:00 to Dec-18 @ 22:00
TAF LKCV 181700Z 1818/1918 12006KT 9999 SCT020
Wind Visibility Clouds
120° at 6 knots 10,000+ meters
  • Scattered at 2,000' AGL
Expired Click to View Dec-18 @ 18:00 to Dec-18 @ 22:00
PROB30 1818/1822 4000 BR OVC012
Visibility Clouds Conditions
4,007 meters
  • Overcast at 1,200' AGL
  • Mist
Temporary Dec-18 @ 18:00 to Dec-19 @ 04:00
TEMPO 1818/1904 7000 BKN020
Visibility Clouds
7,001 meters
  • Broken at 2,000' AGL
Becoming Dec-18 @ 22:00 to Dec-19 @ 18:00
BECMG 1822/1824 14012KT
Wind Visibility Clouds
140° at 12 knots 10,000+ meters
  • Scattered at 2,000' AGL
TAF LKCV 181700Z 1818/1918 12006KT 9999 SCT020 TEMPO 1818/1904 7000 BKN020 PROB30 1818/1822 4000 BR OVC012 BECMG 1822/1824 14012KT
Issued Dec-18 @ 17:00 UTC
(6 hours ago)
Valid From Dec-18 @ 18:00 UTC
(5 hours ago)
Valid To Dec-19 @ 18:00 UTC
(in 19 hours)
Dec-18 @ 18:00 - Dec-18 @ 22:00
Wind Visibility
120° at 6 knots 10,000+ meters
Clouds
  • Scattered at 2,000' AGL
Dec-18 @ 18:00 - Dec-18 @ 22:00
Clouds
  • Overcast at 1,200' AGL
Conditions
  • Mist
Temporary Dec-18 @ 18:00 - Dec-19 @ 04:00
Clouds
  • Broken at 2,000' AGL
Becoming Dec-18 @ 22:00 - Dec-19 @ 18:00
Wind Visibility
140° at 12 knots 10,000+ meters
Clouds
  • Scattered at 2,000' AGL